Time;durP1;ratioP1;P1;durP2;ratioP2;P2;SDS_P1;SDS_P2;PMS_P1;PMS_P2;Temp;Humidity;BMP_temperature;BMP_pressure;BME280_temperature;BME280_humidity;BME280_pressure;Samples;Min_cycle;Max_cycle;Signal;HPM_P1;HPM_P2
2023/04/16 00:02:17;;;;;;;17.83;12.13;;;;;;;-145.41;100.00;58600.66;5021109;28;20396;-73
2023/04/16 00:04:43;;;;;;;11.00;8.60;;;;;;;-145.41;100.00;58600.66;5023350;28;20044;-73
2023/04/16 00:07:08;;;;;;;11.77;8.73;;;;;;;-145.41;100.00;58600.66;5020836;28;20041;-72
2023/04/16 00:09:33;;;;;;;13.38;9.95;;;;;;;-145.41;100.00;58600.66;5021254;28;20118;-73
2023/04/16 00:11:59;;;;;;;15.60;10.82;;;;;;;-145.41;100.00;58600.66;5020750;28;20041;-73
2023/04/16 00:14:24;;;;;;;16.73;12.07;;;;;;;-145.41;100.00;58600.66;5021462;28;20050;-72
2023/04/16 00:16:50;;;;;;;13.70;10.07;;;;;;;-145.41;100.00;58600.66;5023211;28;20038;-74
2023/04/16 00:19:15;;;;;;;16.15;11.15;;;;;;;-145.41;100.00;58600.66;5020238;28;20033;-73
2023/04/16 00:21:40;;;;;;;16.70;10.02;;;;;;;-145.41;100.00;58600.66;5019372;28;20566;-74
2023/04/16 00:24:06;;;;;;;12.20;9.40;;;;;;;-145.41;100.00;58600.66;5020219;28;20038;-74
2023/04/16 00:26:31;;;;;;;12.50;9.43;;;;;;;-145.41;100.00;58600.66;5026457;28;20030;-74
2023/04/16 00:28:57;;;;;;;13.30;9.75;;;;;;;-145.41;100.00;58600.66;5024659;28;20030;-74
2023/04/16 00:31:27;;;;;;;12.02;9.18;;;;;;;-145.41;100.00;58600.66;5019925;28;20038;-74
2023/04/16 00:33:54;;;;;;;13.18;10.13;;;;;;;-145.41;100.00;58600.66;5005024;28;20476;-73
2023/04/16 00:36:22;;;;;;;10.95;7.90;;;;;;;-145.41;100.00;58600.66;5026907;28;20061;-74
2023/04/16 00:38:48;;;;;;;11.30;8.60;;;;;;;-145.41;100.00;58600.66;5015235;28;20508;-74
2023/04/16 00:41:13;;;;;;;12.65;8.82;;;;;;;-145.41;100.00;58600.66;5022193;28;20048;-74
2023/04/16 00:43:38;;;;;;;12.48;9.55;;;;;;;-145.41;100.00;58600.66;5019592;28;20073;-74
2023/04/16 00:46:05;;;;;;;12.20;9.25;;;;;;;-145.41;100.00;58600.66;5011980;28;20042;-74
2023/04/16 00:48:32;;;;;;;13.75;10.23;;;;;;;-145.41;100.00;58600.66;5019993;28;20037;-73
2023/04/16 00:50:59;;;;;;;12.80;9.55;;;;;;;-145.41;100.00;58600.66;5018144;28;20026;-73
2023/04/16 00:53:25;;;;;;;12.85;9.50;;;;;;;-145.41;100.00;58600.66;5005172;28;20062;-74
2023/04/16 00:55:50;;;;;;;12.02;8.93;;;;;;;-145.41;100.00;58600.66;5019841;28;20673;-74
2023/04/16 00:58:16;;;;;;;11.73;8.68;;;;;;;-145.41;100.00;58600.66;5025186;28;20091;-73
2023/04/16 01:00:41;;;;;;;14.70;9.70;;;;;;;-145.41;100.00;58600.66;5026684;28;20029;-73
2023/04/16 01:03:08;;;;;;;13.60;8.77;;;;;;;-145.41;100.00;58600.66;5024286;28;20512;-73
2023/04/16 01:05:35;;;;;;;16.75;8.10;;;;;;;-145.41;100.00;58600.66;5023993;28;20585;-73
2023/04/16 01:08:00;;;;;;;10.40;7.72;;;;;;;-145.41;100.00;58600.66;5026195;28;20040;-74
2023/04/16 01:10:25;;;;;;;12.70;9.40;;;;;;;-145.41;100.00;58600.66;5025263;28;20403;-73
2023/04/16 01:12:51;;;;;;;14.93;10.25;;;;;;;-145.41;100.00;58600.66;5026058;28;20567;-73
2023/04/16 01:15:16;;;;;;;13.80;9.98;;;;;;;-145.41;100.00;58600.66;5005492;28;20042;-74
2023/04/16 01:17:44;;;;;;;14.50;9.73;;;;;;;-145.41;100.00;58600.66;5024840;28;20069;-73
2023/04/16 01:20:10;;;;;;;11.63;8.95;;;;;;;-145.41;100.00;58600.66;5025702;28;20114;-74
2023/04/16 01:22:35;;;;;;;13.63;9.00;;;;;;;-145.41;100.00;58600.66;5022540;28;20058;-74
2023/04/16 01:25:01;;;;;;;12.27;8.85;;;;;;;-145.41;100.00;58600.66;5025405;28;20500;-73
2023/04/16 01:27:26;;;;;;;10.95;8.13;;;;;;;-145.41;100.00;58600.66;5012696;28;20033;-73
2023/04/16 01:29:52;;;;;;;13.55;9.75;;;;;;;-145.41;100.00;58600.66;5024433;28;20041;-73
2023/04/16 01:32:23;;;;;;;11.60;8.88;;;;;;;-145.41;100.00;58600.66;5022393;28;20038;-73
2023/04/16 01:34:49;;;;;;;12.27;8.48;;;;;;;-145.41;100.00;58600.66;5015113;28;20033;-73
2023/04/16 01:37:16;;;;;;;11.77;8.05;;;;;;;-145.41;100.00;58600.66;5022469;28;20076;-74
2023/04/16 01:39:41;;;;;;;11.48;8.32;;;;;;;-145.41;100.00;58600.66;5014347;28;20033;-73
2023/04/16 01:42:06;;;;;;;12.57;9.07;;;;;;;-145.41;100.00;58600.66;5014897;28;20558;-74
2023/04/16 01:44:32;;;;;;;11.35;8.75;;;;;;;-145.41;100.00;58600.66;5028127;28;20025;-74
2023/04/16 01:46:57;;;;;;;16.13;9.27;;;;;;;-145.41;100.00;58600.66;5022597;28;20092;-73
2023/04/16 01:49:24;;;;;;;10.25;7.90;;;;;;;-145.41;100.00;58600.66;5022560;28;20033;-73
2023/04/16 01:51:50;;;;;;;12.43;9.15;;;;;;;-145.41;100.00;58600.66;5022189;28;20512;-74
2023/04/16 01:54:15;;;;;;;12.05;8.48;;;;;;;-145.41;100.00;58600.66;5013507;28;20067;-73
2023/04/16 01:56:41;;;;;;;10.93;8.38;;;;;;;-145.41;100.00;58600.66;5023016;28;20034;-73
2023/04/16 01:59:06;;;;;;;12.02;9.32;;;;;;;-145.41;100.00;58600.66;5006423;28;20033;-74
2023/04/16 02:01:37;;;;;;;14.95;11.15;;;;;;;-145.41;100.00;58600.66;5014244;28;20029;-74
2023/04/16 02:04:03;;;;;;;14.23;10.40;;;;;;;-145.41;100.00;58600.66;5028102;28;20523;-74
2023/04/16 02:06:29;;;;;;;14.85;10.05;;;;;;;-145.41;100.00;58600.66;5012409;28;20077;-73
2023/04/16 02:08:54;;;;;;;13.80;9.52;;;;;;;-145.41;100.00;58600.66;5025880;28;20116;-74
2023/04/16 02:11:20;;;;;;;12.30;8.50;;;;;;;-145.41;100.00;58600.66;5026673;28;20799;-73
2023/04/16 02:13:45;;;;;;;18.38;11.65;;;;;;;-145.41;100.00;58600.66;5014867;28;20033;-73
2023/04/16 02:16:11;;;;;;;16.70;10.57;;;;;;;-145.41;100.00;58600.66;5011678;28;20053;-73
2023/04/16 02:18:49;;;;;;;16.63;10.60;;;;;;;-145.41;100.00;58600.66;5012733;28;20083;-73
2023/04/16 02:21:17;;;;;;;13.57;9.40;;;;;;;-145.41;100.00;58600.66;5007883;28;20034;-73
2023/04/16 02:23:46;;;;;;;14.32;10.73;;;;;;;-145.41;100.00;58600.66;5025920;28;20041;-74
2023/04/16 02:26:12;;;;;;;14.13;9.55;;;;;;;-145.41;100.00;58600.66;5014569;28;20450;-73
2023/04/16 02:28:38;;;;;;;12.23;9.52;;;;;;;-145.41;100.00;58600.66;5020904;28;20045;-73
2023/04/16 02:31:03;;;;;;;15.15;10.82;;;;;;;-145.41;100.00;58600.66;5014514;28;20029;-73
2023/04/16 02:33:37;;;;;;;12.52;9.80;;;;;;;-145.41;100.00;58600.66;5011519;28;20038;-73
2023/04/16 02:36:02;;;;;;;16.52;10.45;;;;;;;-145.41;100.00;58600.66;5014616;28;20048;-73
2023/04/16 02:38:28;;;;;;;13.40;10.07;;;;;;;-145.41;100.00;58600.66;5020510;28;20029;-73
2023/04/16 02:40:53;;;;;;;16.90;11.48;;;;;;;-145.41;100.00;58600.66;5007509;28;20033;-74
2023/04/16 02:43:19;;;;;;;17.30;11.15;;;;;;;-145.41;100.00;58600.66;5011377;28;20048;-74
2023/04/16 02:45:44;;;;;;;16.08;11.63;;;;;;;-145.41;100.00;58600.66;5006293;28;20030;-74
2023/04/16 02:48:10;;;;;;;14.48;10.40;;;;;;;-145.41;100.00;58600.66;5019352;28;20180;-74
2023/04/16 02:50:35;;;;;;;14.05;10.05;;;;;;;-145.41;100.00;58600.66;5024043;28;20056;-73
2023/04/16 02:53:00;;;;;;;14.10;10.15;;;;;;;-145.41;100.00;58600.66;5023746;28;20037;-74
2023/04/16 02:55:27;;;;;;;19.73;12.60;;;;;;;-145.41;100.00;58600.66;5013787;28;20048;-74
2023/04/16 02:57:52;;;;;;;22.75;14.13;;;;;;;-145.41;100.00;58600.66;5011575;28;20038;-74
2023/04/16 03:00:18;;;;;;;18.70;12.48;;;;;;;-145.41;100.00;58600.66;5013382;28;20037;-73
2023/04/16 03:02:43;;;;;;;18.55;12.80;;;;;;;-145.41;100.00;58600.66;5005555;28;20044;-73
2023/04/16 03:05:09;;;;;;;18.42;12.73;;;;;;;-145.41;100.00;58600.66;5005271;28;20492;-74
2023/04/16 03:07:34;;;;;;;22.52;13.93;;;;;;;-145.41;100.00;58600.66;5020426;28;20129;-73
2023/04/16 03:10:00;;;;;;;18.92;13.57;;;;;;;-145.41;100.00;58600.66;5004824;28;20025;-74
2023/04/16 03:12:25;;;;;;;17.50;11.70;;;;;;;-145.41;100.00;58600.66;5006167;28;20060;-74
2023/04/16 03:14:53;;;;;;;17.55;12.05;;;;;;;-145.41;100.00;58600.66;5021045;28;20041;-73
2023/04/16 03:17:18;;;;;;;17.90;12.20;;;;;;;-145.41;100.00;58600.66;5024027;28;20139;-73
2023/04/16 03:19:44;;;;;;;19.10;12.30;;;;;;;-145.41;100.00;58600.66;5021308;28;20494;-73
2023/04/16 03:22:09;;;;;;;18.40;12.07;;;;;;;-145.41;100.00;58600.66;5022141;28;20388;-74
2023/04/16 03:24:35;;;;;;;16.75;11.02;;;;;;;-145.41;100.00;58600.66;5023561;28;20391;-73
2023/04/16 03:27:01;;;;;;;18.35;12.32;;;;;;;-145.41;100.00;58600.66;5021499;28;20449;-73
2023/04/16 03:29:27;;;;;;;18.90;12.70;;;;;;;-145.41;100.00;58600.66;5012599;28;20466;-73
2023/04/16 03:31:53;;;;;;;18.25;13.02;;;;;;;-145.41;100.00;58600.66;5004274;28;20041;-73
2023/04/16 03:34:20;;;;;;;21.98;15.07;;;;;;;-145.41;100.00;58600.66;5022862;28;20115;-73
2023/04/16 03:36:46;;;;;;;20.55;13.55;;;;;;;-145.41;100.00;58600.66;5012313;28;20495;-73
2023/04/16 03:39:11;;;;;;;21.92;13.73;;;;;;;-145.41;100.00;58600.66;5013064;28;20040;-73
2023/04/16 03:41:37;;;;;;;14.43;10.20;;;;;;;-145.41;100.00;58600.66;5020301;28;20045;-73
2023/04/16 03:44:02;;;;;;;15.55;10.88;;;;;;;-145.41;100.00;58600.66;5027757;28;20520;-73
2023/04/16 03:46:28;;;;;;;20.73;12.60;;;;;;;-145.41;100.00;58600.66;5007634;28;20512;-73
2023/04/16 03:48:53;;;;;;;18.70;13.05;;;;;;;-145.41;100.00;58600.66;5020910;28;20034;-73
2023/04/16 03:51:19;;;;;;;17.48;11.98;;;;;;;-145.41;100.00;58600.66;5016703;28;20170;-73
2023/04/16 03:53:44;;;;;;;16.38;11.63;;;;;;;-145.41;100.00;58600.66;5022860;28;20103;-73
2023/04/16 03:56:10;;;;;;;18.50;12.52;;;;;;;-145.41;100.00;58600.66;5010000;28;20030;-73
2023/04/16 03:58:36;;;;;;;16.38;11.35;;;;;;;-145.41;100.00;58600.66;5009925;28;20045;-73
2023/04/16 04:01:01;;;;;;;89.70;14.65;;;;;;;-145.41;100.00;58600.66;5013323;28;20033;-74
2023/04/16 04:03:27;;;;;;;18.67;12.20;;;;;;;-145.41;100.00;58600.66;5019197;28;20061;-74
2023/04/16 04:05:53;;;;;;;17.60;10.73;;;;;;;-145.41;100.00;58600.66;5018114;28;20128;-74
2023/04/16 04:08:26;;;;;;;12.95;8.98;;;;;;;-145.41;100.00;58600.66;5011222;28;20129;-74
2023/04/16 04:10:51;;;;;;;12.48;7.88;;;;;;;-145.41;100.00;58600.66;5003857;28;20112;-74
2023/04/16 04:13:18;;;;;;;10.13;7.00;;;;;;;-145.41;100.00;58600.66;5011614;28;20504;-74
2023/04/16 04:15:44;;;;;;;15.52;9.77;;;;;;;-145.41;100.00;58600.66;5011219;28;20037;-74
2023/04/16 04:18:09;;;;;;;14.70;9.88;;;;;;;-145.41;100.00;58600.66;5003275;28;20132;-74
2023/04/16 04:20:38;;;;;;;16.65;8.95;;;;;;;-145.41;100.00;58600.66;5024150;28;20029;-74
2023/04/16 04:23:04;;;;;;;16.92;9.05;;;;;;;-145.41;100.00;58600.66;5017407;28;20416;-74
2023/04/16 04:25:29;;;;;;;18.55;10.55;;;;;;;-145.41;100.00;58600.66;5021552;28;20044;-74
2023/04/16 04:27:56;;;;;;;16.02;10.75;;;;;;;-145.41;100.00;58600.66;5002328;28;20037;-74
2023/04/16 04:30:22;;;;;;;15.80;10.00;;;;;;;-145.41;100.00;58600.66;5021643;28;20050;-74
2023/04/16 04:32:47;;;;;;;16.25;12.00;;;;;;;-145.41;100.00;58600.66;5022784;28;20034;-74
2023/04/16 04:35:14;;;;;;;18.50;12.38;;;;;;;-145.41;100.00;58600.66;5006394;28;20037;-74
2023/04/16 04:37:40;;;;;;;18.13;12.85;;;;;;;-145.41;100.00;58600.66;5016800;28;20029;-74
2023/04/16 04:40:13;;;;;;;18.08;11.88;;;;;;;-145.41;100.00;58600.66;5014099;28;20030;-74
2023/04/16 04:42:38;;;;;;;88.22;12.32;;;;;;;-145.41;100.00;58600.66;5015939;28;20029;-74
2023/04/16 04:45:04;;;;;;;30.95;9.35;;;;;;;-145.41;100.00;58600.66;5014275;28;20048;-74
2023/04/16 04:47:31;;;;;;;84.55;10.50;;;;;;;-145.41;100.00;58600.66;5015994;28;20113;-74
2023/04/16 04:49:57;;;;;;;16.73;7.60;;;;;;;-145.41;100.00;58600.66;5014482;28;20277;-74
2023/04/16 04:52:23;;;;;;;14.80;9.35;;;;;;;-145.41;100.00;58600.66;5023418;28;20041;-74
2023/04/16 04:54:49;;;;;;;14.85;10.50;;;;;;;-145.41;100.00;58600.66;5026720;28;20025;-74
2023/04/16 04:57:15;;;;;;;16.55;12.57;;;;;;;-145.41;100.00;58600.66;5024556;28;20029;-73
2023/04/16 04:59:41;;;;;;;16.45;12.27;;;;;;;-145.41;100.00;58600.66;5014489;28;20037;-74
2023/04/16 05:02:08;;;;;;;15.70;11.15;;;;;;;-145.41;100.00;58600.66;5023445;28;20037;-74
2023/04/16 05:04:34;;;;;;;14.65;10.80;;;;;;;-145.41;100.00;58600.66;5023811;28;20140;-74
2023/04/16 05:07:00;;;;;;;13.50;10.00;;;;;;;-145.41;100.00;58600.66;5024651;28;20169;-73
2023/04/16 05:09:25;;;;;;;14.05;10.55;;;;;;;-145.41;100.00;58600.66;5025238;28;20038;-73
2023/04/16 05:11:51;;;;;;;17.25;11.57;;;;;;;-145.41;100.00;58600.66;5026088;28;20048;-73
2023/04/16 05:14:16;;;;;;;13.85;10.68;;;;;;;-145.41;100.00;58600.66;5025204;28;20037;-73
2023/04/16 05:16:42;;;;;;;15.60;11.43;;;;;;;-145.41;100.00;58600.66;5025278;28;20040;-74
2023/04/16 05:19:07;;;;;;;14.95;11.43;;;;;;;-145.41;100.00;58600.66;5023358;28;20038;-74
2023/04/16 05:21:32;;;;;;;15.68;11.63;;;;;;;-145.41;100.00;58600.66;5028361;28;20029;-74
2023/04/16 05:23:58;;;;;;;16.67;11.73;;;;;;;-145.41;100.00;58600.66;5029425;28;20044;-74
2023/04/16 05:26:23;;;;;;;19.08;12.35;;;;;;;-145.41;100.00;58600.66;5022518;28;20041;-74
2023/04/16 05:28:48;;;;;;;23.25;11.57;;;;;;;-145.41;100.00;58600.66;5024864;28;20056;-73
2023/04/16 05:31:14;;;;;;;20.45;12.55;;;;;;;-145.41;100.00;58600.66;5025754;28;20125;-73
2023/04/16 05:33:39;;;;;;;18.10;11.00;;;;;;;-145.41;100.00;58600.66;5023915;28;20060;-73
2023/04/16 05:36:05;;;;;;;19.30;11.30;;;;;;;-145.41;100.00;58600.66;5025187;28;20088;-73
2023/04/16 05:38:30;;;;;;;20.80;12.25;;;;;;;-145.41;100.00;58600.66;5022013;28;20060;-74
2023/04/16 05:40:57;;;;;;;24.02;12.40;;;;;;;-145.41;100.00;58600.66;5024971;28;20404;-73
2023/04/16 05:43:22;;;;;;;19.80;11.85;;;;;;;-145.41;100.00;58600.66;5025503;28;20094;-74
2023/04/16 05:45:48;;;;;;;23.70;12.45;;;;;;;-145.41;100.00;58600.66;5021821;28;20141;-74
2023/04/16 05:48:13;;;;;;;19.95;12.45;;;;;;;-145.41;100.00;58600.66;5025334;28;20037;-73
2023/04/16 05:50:38;;;;;;;28.98;13.30;;;;;;;-145.41;100.00;58600.66;5026676;28;20037;-73
2023/04/16 05:53:08;;;;;;;18.70;12.95;;;;;;;-145.41;100.00;58600.66;5023809;28;20037;-73
2023/04/16 05:55:35;;;;;;;18.02;13.23;;;;;;;-145.41;100.00;58600.66;5024865;28;20033;-73
2023/04/16 05:58:03;;;;;;;17.60;12.30;;;;;;;-145.41;100.00;58600.66;5028280;28;20045;-73
2023/04/16 06:00:28;;;;;;;20.40;14.82;;;;;;;-145.41;100.00;58600.66;5022861;28;20386;-73
2023/04/16 06:02:54;;;;;;;18.05;13.80;;;;;;;-145.41;100.00;58600.66;5025196;28;20067;-73
2023/04/16 06:05:19;;;;;;;17.33;13.43;;;;;;;-145.41;100.00;58600.66;5028544;28;20033;-72
2023/04/16 06:07:44;;;;;;;17.33;12.48;;;;;;;-145.41;100.00;58600.66;5024789;28;20029;-73
2023/04/16 06:10:10;;;;;;;17.15;12.90;;;;;;;-145.41;100.00;58600.66;5022879;28;20385;-73
2023/04/16 06:12:35;;;;;;;18.85;13.98;;;;;;;-145.41;100.00;58600.66;5023142;28;20480;-73
2023/04/16 06:15:00;;;;;;;19.45;15.00;;;;;;;-145.41;100.00;58600.66;5026075;28;20041;-73
2023/04/16 06:17:26;;;;;;;19.83;14.85;;;;;;;-145.41;100.00;58600.66;5022966;28;20100;-73
2023/04/16 06:19:51;;;;;;;20.35;15.15;;;;;;;-145.41;100.00;58600.66;5022493;28;20048;-73
2023/04/16 06:22:17;;;;;;;15.57;12.40;;;;;;;-145.41;100.00;58600.66;5020877;28;20037;-73
2023/04/16 06:24:42;;;;;;;16.52;13.18;;;;;;;-145.41;100.00;58600.66;5025669;28;20418;-72
2023/04/16 06:27:07;;;;;;;16.90;13.05;;;;;;;-145.41;100.00;58600.66;5023051;28;20038;-72
2023/04/16 06:29:33;;;;;;;20.15;15.02;;;;;;;-145.41;100.00;58600.66;5021966;28;20069;-73
2023/04/16 06:31:58;;;;;;;17.60;13.93;;;;;;;-145.41;100.00;58600.66;5014070;28;20044;-72
2023/04/16 06:34:25;;;;;;;17.35;13.95;;;;;;;-145.41;100.00;58600.66;5026581;28;20034;-72
2023/04/16 06:36:51;;;;;;;16.98;13.88;;;;;;;-145.41;100.00;58600.66;5021631;28;20026;-73
2023/04/16 06:39:16;;;;;;;17.83;13.90;;;;;;;-145.41;100.00;58600.66;5023284;28;20483;-72
2023/04/16 06:41:42;;;;;;;19.40;15.60;;;;;;;-145.41;100.00;58600.66;5021352;28;20046;-73
2023/04/16 06:44:07;;;;;;;18.95;14.40;;;;;;;-145.41;100.00;58600.66;5026729;28;20029;-73
2023/04/16 06:46:32;;;;;;;17.10;13.48;;;;;;;-145.41;100.00;58600.66;5024292;28;20439;-73
2023/04/16 06:48:57;;;;;;;19.42;15.27;;;;;;;-145.41;100.00;58600.66;5027399;28;20403;-73
2023/04/16 06:51:23;;;;;;;16.38;12.52;;;;;;;-145.41;100.00;58600.66;5018266;28;20555;-73
2023/04/16 06:53:49;;;;;;;19.83;15.55;;;;;;;-145.41;100.00;58600.66;5023997;28;20506;-73
2023/04/16 06:56:14;;;;;;;16.42;14.07;;;;;;;-145.41;100.00;58600.66;5023303;28;20030;-72
2023/04/16 06:58:39;;;;;;;17.48;14.00;;;;;;;-145.41;100.00;58600.66;5023549;28;20124;-71
2023/04/16 07:01:05;;;;;;;17.73;14.55;;;;;;;-145.41;100.00;58600.66;5024048;28;20045;-72
2023/04/16 07:03:30;;;;;;;18.90;14.45;;;;;;;-145.41;100.00;58600.66;5024032;28;20046;-73
2023/04/16 07:05:56;;;;;;;19.00;15.18;;;;;;;-145.41;100.00;58600.66;5023784;28;20041;-72
2023/04/16 07:08:21;;;;;;;27.40;21.30;;;;;;;-145.41;100.00;58600.66;5024028;28;20039;-73
2023/04/16 07:10:46;;;;;;;22.75;18.13;;;;;;;-145.41;100.00;58600.66;5019647;28;20044;-71
2023/04/16 07:13:12;;;;;;;25.98;21.20;;;;;;;-145.41;100.00;58600.66;5024602;28;20080;-73
2023/04/16 07:15:37;;;;;;;24.75;20.08;;;;;;;-145.41;100.00;58600.66;5026084;28;20034;-73
2023/04/16 07:18:03;;;;;;;25.83;20.67;;;;;;;-145.41;100.00;58600.66;5023562;28;20477;-72
2023/04/16 07:20:28;;;;;;;21.98;17.88;;;;;;;-145.41;100.00;58600.66;5019921;28;20038;-72
2023/04/16 07:22:53;;;;;;;19.48;16.50;;;;;;;-145.41;100.00;58600.66;5026612;28;20056;-73
2023/04/16 07:25:19;;;;;;;15.52;12.98;;;;;;;-145.41;100.00;58600.66;5026281;28;20053;-73
2023/04/16 07:27:44;;;;;;;15.60;12.65;;;;;;;-145.41;100.00;58600.66;5023337;28;20041;-73
2023/04/16 07:30:10;;;;;;;17.23;15.23;;;;;;;-145.41;100.00;58600.66;5020090;28;20107;-73
2023/04/16 07:32:35;;;;;;;16.52;12.45;;;;;;;-145.41;100.00;58600.66;5023408;28;20565;-73
2023/04/16 07:35:02;;;;;;;18.40;14.90;;;;;;;-145.41;100.00;58600.66;5025926;28;20503;-72
2023/04/16 07:37:28;;;;;;;14.38;11.68;;;;;;;-145.41;100.00;58600.66;5020689;28;20029;-73
2023/04/16 07:39:56;;;;;;;12.77;11.02;;;;;;;-145.41;100.00;58600.66;5021888;28;20043;-73
2023/04/16 07:42:21;;;;;;;13.73;10.85;;;;;;;-145.41;100.00;58600.66;5021214;28;20053;-73
2023/04/16 07:44:46;;;;;;;14.23;11.15;;;;;;;-145.41;100.00;58600.66;5025442;28;20059;-73
2023/04/16 07:47:12;;;;;;;13.57;11.63;;;;;;;-145.41;100.00;58600.66;5021155;28;20041;-73
2023/04/16 07:49:37;;;;;;;12.60;10.75;;;;;;;-145.41;100.00;58600.66;5021169;28;20045;-73
2023/04/16 07:52:03;;;;;;;12.68;10.82;;;;;;;-145.41;100.00;58600.66;5019368;28;20052;-73
2023/04/16 07:54:28;;;;;;;12.15;10.55;;;;;;;-145.41;100.00;58600.66;5024989;28;20076;-73
2023/04/16 07:56:53;;;;;;;12.88;10.82;;;;;;;-145.41;100.00;58600.66;5026141;28;20042;-73
2023/04/16 07:59:18;;;;;;;13.38;10.77;;;;;;;-145.41;100.00;58600.66;5021131;28;20029;-73
2023/04/16 08:01:44;;;;;;;12.25;10.02;;;;;;;-145.41;100.00;58600.66;5021429;28;20034;-73
2023/04/16 08:04:09;;;;;;;10.57;8.82;;;;;;;-145.41;100.00;58600.66;5023008;28;20088;-72
2023/04/16 08:06:35;;;;;;;10.57;9.32;;;;;;;-145.41;100.00;58600.66;5024431;28;20044;-74
2023/04/16 08:09:00;;;;;;;14.85;10.55;;;;;;;-145.41;100.00;58600.66;5029150;28;20591;-73
2023/04/16 08:11:25;;;;;;;12.80;10.23;;;;;;;-145.41;100.00;58600.66;5024811;28;20104;-73
2023/04/16 08:13:51;;;;;;;12.55;10.43;;;;;;;-145.41;100.00;58600.66;5025821;28;20029;-73
2023/04/16 08:16:16;;;;;;;10.70;8.60;;;;;;;-145.41;100.00;58600.66;5027783;28;20041;-73
2023/04/16 08:18:41;;;;;;;10.07;8.80;;;;;;;-145.41;100.00;58600.66;5025753;28;20499;-73
2023/04/16 08:21:07;;;;;;;10.50;8.77;;;;;;;-145.41;100.00;58600.66;5024172;28;20042;-73
2023/04/16 08:23:32;;;;;;;10.77;8.75;;;;;;;-145.41;100.00;58600.66;5024076;28;20038;-73
2023/04/16 08:25:59;;;;;;;13.60;10.43;;;;;;;-145.41;100.00;58600.66;5026793;28;20030;-73
2023/04/16 08:28:24;;;;;;;10.27;9.00;;;;;;;-145.41;100.00;58600.66;5026221;28;20495;-73
2023/04/16 08:30:50;;;;;;;10.00;8.73;;;;;;;-145.41;100.00;58600.66;5023446;28;20073;-72
2023/04/16 08:33:15;;;;;;;10.80;7.80;;;;;;;-145.41;100.00;58600.66;5028372;28;20064;-73
2023/04/16 08:35:40;;;;;;;9.75;8.38;;;;;;;-145.41;100.00;58600.66;5026229;28;20396;-73
2023/04/16 08:38:06;;;;;;;9.25;7.10;;;;;;;-145.41;100.00;58600.66;5023371;28;20508;-73
2023/04/16 08:40:34;;;;;;;9.70;7.57;;;;;;;-145.41;100.00;58600.66;5027718;28;20042;-73
2023/04/16 08:43:04;;;;;;;8.43;6.97;;;;;;;-145.41;100.00;58600.66;5025681;28;20049;-73
2023/04/16 08:45:33;;;;;;;8.15;6.93;;;;;;;-145.41;100.00;58600.66;5026535;28;20044;-73
2023/04/16 08:48:00;;;;;;;7.20;5.40;;;;;;;-145.41;100.00;58600.66;5009106;28;20037;-73
2023/04/16 08:50:27;;;;;;;7.70;5.57;;;;;;;-145.41;100.00;58600.66;5027343;28;20048;-73
2023/04/16 08:52:57;;;;;;;7.82;6.47;;;;;;;-145.41;100.00;58600.66;5030036;28;20068;-74
2023/04/16 08:55:29;;;;;;;8.40;6.40;;;;;;;-145.41;100.00;58600.66;5030882;28;20044;-73
2023/04/16 08:57:58;;;;;;;8.18;5.55;;;;;;;-145.41;100.00;58600.66;5025710;28;20167;-73
2023/04/16 09:00:24;;;;;;;7.63;5.80;;;;;;;-145.41;100.00;58600.66;5027671;28;20072;-73
2023/04/16 09:02:50;;;;;;;7.70;5.40;;;;;;;-145.41;100.00;58600.66;5033020;28;20061;-73
2023/04/16 09:05:16;;;;;;;7.68;5.93;;;;;;;-145.41;100.00;58600.66;5026014;28;20041;-73
2023/04/16 09:07:45;;;;;;;6.95;4.57;;;;;;;-145.41;100.00;58600.66;5026177;28;20048;-74
2023/04/16 09:10:11;;;;;;;6.32;4.85;;;;;;;-145.41;100.00;58600.66;5030991;28;20602;-74
2023/04/16 09:12:37;;;;;;;6.85;5.20;;;;;;;-145.41;100.00;58600.66;5031250;28;20060;-73
2023/04/16 09:15:04;;;;;;;8.73;5.10;;;;;;;-145.41;100.00;58600.66;5032972;28;20041;-73
2023/04/16 09:17:30;;;;;;;7.03;5.30;;;;;;;-145.41;100.00;58600.66;5031473;28;20030;-73
2023/04/16 09:19:55;;;;;;;7.10;5.25;;;;;;;-145.41;100.00;58600.66;5032591;28;20605;-73
2023/04/16 09:22:20;;;;;;;6.93;4.78;;;;;;;-145.41;100.00;58600.66;5031183;28;20036;-74
2023/04/16 09:24:46;;;;;;;6.43;5.28;;;;;;;-145.41;100.00;58600.66;5032991;28;20033;-73
2023/04/16 09:27:11;;;;;;;7.50;5.30;;;;;;;-145.41;100.00;58600.66;5031877;28;20136;-73
2023/04/16 09:29:41;;;;;;;6.35;4.70;;;;;;;-145.41;100.00;58600.66;5031682;28;20064;-73
2023/04/16 09:32:08;;;;;;;5.90;4.07;;;;;;;-145.41;100.00;58600.66;5022873;28;20092;-73
2023/04/16 09:34:34;;;;;;;5.50;4.00;;;;;;;-145.41;100.00;58600.66;5028084;28;20104;-73
2023/04/16 09:37:18;;;;;;;4.43;2.85;;;;;;;-145.41;100.00;58600.66;5025581;28;20029;-73
2023/04/16 09:39:44;;;;;;;4.95;3.30;;;;;;;-145.41;100.00;58600.66;5023548;28;20469;-73
2023/04/16 09:42:10;;;;;;;4.47;3.17;;;;;;;-145.41;100.00;58600.66;5023413;28;20092;-72
2023/04/16 09:44:37;;;;;;;4.15;2.75;;;;;;;-145.41;100.00;58600.66;5027867;28;20037;-72
2023/04/16 09:47:07;;;;;;;4.22;2.65;;;;;;;-145.41;100.00;58600.66;5022562;28;20053;-73
2023/04/16 09:49:41;;;;;;;5.38;3.05;;;;;;;-145.41;100.00;58600.66;5024695;28;20120;-73
2023/04/16 09:52:17;;;;;;;4.40;2.72;;;;;;;-145.41;100.00;58600.66;5021682;28;20029;-73
2023/04/16 09:54:50;;;;;;;4.93;3.17;;;;;;;-145.41;100.00;58600.66;5027491;28;20120;-73
2023/04/16 09:57:23;;;;;;;5.63;3.88;;;;;;;-145.41;100.00;58600.66;5022025;28;20508;-73
2023/04/16 09:59:53;;;;;;;7.75;4.10;;;;;;;-145.41;100.00;58600.66;5028475;28;20108;-73
2023/04/16 10:02:19;;;;;;;6.97;4.60;;;;;;;-145.41;100.00;58600.66;5022508;28;20073;-72
2023/04/16 10:04:50;;;;;;;7.40;4.68;;;;;;;-145.41;100.00;58600.66;5026941;28;20064;-73
2023/04/16 10:07:16;;;;;;;6.32;4.35;;;;;;;-145.41;100.00;58600.66;5021262;28;20462;-72
2023/04/16 10:09:42;;;;;;;7.00;4.32;;;;;;;-145.41;100.00;58600.66;5024814;28;20044;-73
2023/04/16 10:12:08;;;;;;;6.38;4.38;;;;;;;-145.41;100.00;58600.66;5026041;28;20112;-73
2023/04/16 10:14:34;;;;;;;6.38;4.82;;;;;;;-145.41;100.00;58600.66;5029724;28;20037;-73
2023/04/16 10:16:59;;;;;;;5.88;4.40;;;;;;;-145.41;100.00;58600.66;5027262;28;20041;-73
2023/04/16 10:19:26;;;;;;;6.15;4.00;;;;;;;-145.41;100.00;58600.66;5021843;28;20042;-73
2023/04/16 10:21:53;;;;;;;5.13;3.72;;;;;;;-145.41;100.00;58600.66;5021726;28;20038;-73
2023/04/16 10:24:19;;;;;;;6.45;4.40;;;;;;;-145.41;100.00;58600.66;5024667;28;20033;-73
2023/04/16 10:26:46;;;;;;;6.93;4.55;;;;;;;-145.41;100.00;58600.66;5024690;28;20033;-73
2023/04/16 10:29:12;;;;;;;6.63;4.75;;;;;;;-145.41;100.00;58600.66;5020286;28;20069;-73
2023/04/16 10:31:39;;;;;;;6.03;3.97;;;;;;;-145.41;100.00;58600.66;5020462;28;20088;-73
2023/04/16 10:34:07;;;;;;;6.78;4.70;;;;;;;-145.41;100.00;58600.66;5024543;28;20142;-73
2023/04/16 10:36:36;;;;;;;6.78;4.85;;;;;;;-145.41;100.00;58600.66;5024673;28;20038;-72
2023/04/16 10:39:02;;;;;;;6.47;4.80;;;;;;;-145.41;100.00;58600.66;5022797;28;20033;-73
2023/04/16 10:41:27;;;;;;;6.50;4.20;;;;;;;-145.41;100.00;58600.66;5022143;28;20033;-73
2023/04/16 10:44:04;;;;;;;6.25;4.50;;;;;;;-145.41;100.00;58600.66;5025733;28;20518;-72
2023/04/16 10:46:33;;;;;;;6.72;4.47;;;;;;;-145.41;100.00;58600.66;5024257;28;20038;-73
2023/04/16 10:49:18;;;;;;;5.85;4.28;;;;;;;-145.41;100.00;58600.66;5030469;28;20044;-74
2023/04/16 10:52:06;;;;;;;5.85;4.05;;;;;;;-145.41;100.00;58600.66;5029218;28;20029;-74
2023/04/16 10:54:34;;;;;;;6.78;3.40;;;;;;;-145.41;100.00;58600.66;5028628;28;20037;-73
2023/04/16 10:57:03;;;;;;;4.65;2.95;;;;;;;-145.41;100.00;58600.66;5025767;28;20120;-73